sensor_id;sensor_type;location;lat;lon;timestamp;temperature;humidity
19224;DHT22;9746;47.180;9.776;2023-04-21T09:24:44;16.40;99.90
19224;DHT22;9746;47.180;9.776;2023-04-21T09:27:11;16.70;99.90
19224;DHT22;9746;47.180;9.776;2023-04-21T09:30:02;17.00;99.90
19224;DHT22;9746;47.180;9.776;2023-04-21T09:32:35;17.10;99.90
19224;DHT22;9746;47.180;9.776;2023-04-21T09:35:05;17.50;99.90
19224;DHT22;9746;47.180;9.776;2023-04-21T09:37:32;17.70;99.90
19224;DHT22;9746;47.180;9.776;2023-04-21T09:40:12;17.90;99.90
19224;DHT22;9746;47.180;9.776;2023-04-21T09:42:40;18.10;99.90
19224;DHT22;9746;47.180;9.776;2023-04-21T09:45:15;18.30;99.90
19224;DHT22;9746;47.180;9.776;2023-04-21T09:47:47;18.70;99.90
19224;DHT22;9746;47.180;9.776;2023-04-21T09:53:29;19.30;99.90
19224;DHT22;9746;47.180;9.776;2023-04-21T09:56:02;19.60;99.90
19224;DHT22;9746;47.180;9.776;2023-04-21T09:58:34;19.80;99.90
19224;DHT22;9746;47.180;9.776;2023-04-21T10:01:03;20.00;99.90
19224;DHT22;9746;47.180;9.776;2023-04-21T10:03:32;20.20;99.90
19224;DHT22;9746;47.180;9.776;2023-04-21T10:06:02;20.40;99.90
19224;DHT22;9746;47.180;9.776;2023-04-21T10:08:30;20.60;99.90
19224;DHT22;9746;47.180;9.776;2023-04-21T10:11:12;20.80;99.90
19224;DHT22;9746;47.180;9.776;2023-04-21T10:13:41;20.90;99.90
19224;DHT22;9746;47.180;9.776;2023-04-21T10:16:09;21.20;99.90
19224;DHT22;9746;47.180;9.776;2023-04-21T10:18:38;21.50;99.90
19224;DHT22;9746;47.180;9.776;2023-04-21T10:21:10;21.70;99.90
19224;DHT22;9746;47.180;9.776;2023-04-21T10:23:40;21.80;99.90
19224;DHT22;9746;47.180;9.776;2023-04-21T10:26:12;22.10;99.90
19224;DHT22;9746;47.180;9.776;2023-04-21T10:28:51;22.40;99.90
19224;DHT22;9746;47.180;9.776;2023-04-21T10:31:30;22.50;99.90
19224;DHT22;9746;47.180;9.776;2023-04-21T10:34:19;22.60;99.90
19224;DHT22;9746;47.180;9.776;2023-04-21T10:40:33;22.90;99.90
19224;DHT22;9746;47.180;9.776;2023-04-21T10:43:05;23.10;99.90
19224;DHT22;9746;47.180;9.776;2023-04-21T10:46:32;23.10;99.90
19224;DHT22;9746;47.180;9.776;2023-04-21T10:49:30;22.70;99.90
19224;DHT22;9746;47.180;9.776;2023-04-21T10:52:05;22.10;99.90
19224;DHT22;9746;47.180;9.776;2023-04-21T10:54:37;22.10;99.90
19224;DHT22;9746;47.180;9.776;2023-04-21T10:57:09;22.40;99.90
19224;DHT22;9746;47.180;9.776;2023-04-21T10:59:39;22.70;99.90
19224;DHT22;9746;47.180;9.776;2023-04-21T11:02:07;23.00;99.90
19224;DHT22;9746;47.180;9.776;2023-04-21T11:04:44;23.70;99.90
19224;DHT22;9746;47.180;9.776;2023-04-21T11:07:14;23.90;99.90
19224;DHT22;9746;47.180;9.776;2023-04-21T11:12:49;24.60;99.90
19224;DHT22;9746;47.180;9.776;2023-04-21T11:15:19;25.00;99.90
19224;DHT22;9746;47.180;9.776;2023-04-21T11:17:46;25.70;99.90
19224;DHT22;9746;47.180;9.776;2023-04-21T11:20:13;26.20;99.90
19224;DHT22;9746;47.180;9.776;2023-04-21T11:22:41;26.70;99.90
19224;DHT22;9746;47.180;9.776;2023-04-21T11:25:19;26.90;99.90
19224;DHT22;9746;47.180;9.776;2023-04-21T11:28:03;27.40;99.90
19224;DHT22;9746;47.180;9.776;2023-04-21T11:30:33;27.70;99.90
19224;DHT22;9746;47.180;9.776;2023-04-21T11:33:01;28.10;99.90
19224;DHT22;9746;47.180;9.776;2023-04-21T11:35:48;28.40;99.90
19224;DHT22;9746;47.180;9.776;2023-04-21T11:38:23;27.80;99.90
19224;DHT22;9746;47.180;9.776;2023-04-21T11:41:01;27.30;99.90
19224;DHT22;9746;47.180;9.776;2023-04-21T11:43:31;27.20;99.90
19224;DHT22;9746;47.180;9.776;2023-04-21T11:46:16;27.60;99.90
19224;DHT22;9746;47.180;9.776;2023-04-21T11:48:44;28.20;99.90
19224;DHT22;9746;47.180;9.776;2023-04-21T11:51:16;28.30;99.90
19224;DHT22;9746;47.180;9.776;2023-04-21T11:53:46;28.80;99.90
19224;DHT22;9746;47.180;9.776;2023-04-21T11:56:22;29.40;99.20
19224;DHT22;9746;47.180;9.776;2023-04-21T11:58:51;30.30;97.80
19224;DHT22;9746;47.180;9.776;2023-04-21T12:01:21;30.30;96.10
19224;DHT22;9746;47.180;9.776;2023-04-21T12:03:52;30.60;94.40
19224;DHT22;9746;47.180;9.776;2023-04-21T12:09:29;30.80;92.90
19224;DHT22;9746;47.180;9.776;2023-04-21T12:11:57;30.90;90.10
19224;DHT22;9746;47.180;9.776;2023-04-21T12:14:28;30.80;92.30
19224;DHT22;9746;47.180;9.776;2023-04-21T12:16:59;30.50;91.40
19224;DHT22;9746;47.180;9.776;2023-04-21T12:19:35;30.70;91.30
19224;DHT22;9746;47.180;9.776;2023-04-21T12:22:06;30.50;88.90
19224;DHT22;9746;47.180;9.776;2023-04-21T12:24:35;30.30;90.00
19224;DHT22;9746;47.180;9.776;2023-04-21T12:27:07;30.30;89.50
19224;DHT22;9746;47.180;9.776;2023-04-21T12:29:37;30.50;87.20
19224;DHT22;9746;47.180;9.776;2023-04-21T12:32:05;30.70;85.00
19224;DHT22;9746;47.180;9.776;2023-04-21T12:34:33;31.20;82.40
19224;DHT22;9746;47.180;9.776;2023-04-21T12:40:10;31.60;84.40
19224;DHT22;9746;47.180;9.776;2023-04-21T12:42:38;32.50;82.20
19224;DHT22;9746;47.180;9.776;2023-04-21T12:45:13;32.30;77.20
19224;DHT22;9746;47.180;9.776;2023-04-21T12:47:42;33.60;73.40
19224;DHT22;9746;47.180;9.776;2023-04-21T12:53:21;33.00;72.10
19224;DHT22;9746;47.180;9.776;2023-04-21T12:55:49;31.70;72.50
19224;DHT22;9746;47.180;9.776;2023-04-21T12:58:17;31.00;69.10
19224;DHT22;9746;47.180;9.776;2023-04-21T13:04:07;29.40;72.50
19224;DHT22;9746;47.180;9.776;2023-04-21T13:09:46;28.90;71.00
19224;DHT22;9746;47.180;9.776;2023-04-21T13:12:45;28.60;72.50
19224;DHT22;9746;47.180;9.776;2023-04-21T13:15:17;29.40;72.80
19224;DHT22;9746;47.180;9.776;2023-04-21T13:17:44;30.80;71.30
19224;DHT22;9746;47.180;9.776;2023-04-21T13:20:13;31.00;62.60
19224;DHT22;9746;47.180;9.776;2023-04-21T13:22:43;30.60;62.00
19224;DHT22;9746;47.180;9.776;2023-04-21T13:25:11;31.00;64.10
19224;DHT22;9746;47.180;9.776;2023-04-21T13:27:38;31.40;61.10
19224;DHT22;9746;47.180;9.776;2023-04-21T13:30:07;31.40;62.80
19224;DHT22;9746;47.180;9.776;2023-04-21T13:32:36;31.70;62.30
19224;DHT22;9746;47.180;9.776;2023-04-21T13:35:06;30.70;61.20
19224;DHT22;9746;47.180;9.776;2023-04-21T13:37:37;29.40;62.20
19224;DHT22;9746;47.180;9.776;2023-04-21T13:40:09;28.50;63.40
19224;DHT22;9746;47.180;9.776;2023-04-21T13:42:37;28.30;64.50
19224;DHT22;9746;47.180;9.776;2023-04-21T13:45:08;29.00;65.50
19224;DHT22;9746;47.180;9.776;2023-04-21T13:47:36;29.70;64.30
19224;DHT22;9746;47.180;9.776;2023-04-21T13:50:05;29.30;62.00
19224;DHT22;9746;47.180;9.776;2023-04-21T13:52:45;28.40;63.00
19224;DHT22;9746;47.180;9.776;2023-04-21T13:55:12;28.00;64.80
19224;DHT22;9746;47.180;9.776;2023-04-21T13:57:39;27.50;65.80
19224;DHT22;9746;47.180;9.776;2023-04-21T14:00:08;27.60;65.70
19224;DHT22;9746;47.180;9.776;2023-04-21T14:02:39;27.90;64.60
19224;DHT22;9746;47.180;9.776;2023-04-21T14:05:07;28.00;63.10
19224;DHT22;9746;47.180;9.776;2023-04-21T14:07:53;28.00;62.10
19224;DHT22;9746;47.180;9.776;2023-04-21T14:10:21;27.50;63.90
19224;DHT22;9746;47.180;9.776;2023-04-21T14:12:48;27.60;65.00
19224;DHT22;9746;47.180;9.776;2023-04-21T14:15:16;27.30;65.60
19224;DHT22;9746;47.180;9.776;2023-04-21T14:17:51;26.60;65.80
19224;DHT22;9746;47.180;9.776;2023-04-21T14:20:19;26.00;68.50
19224;DHT22;9746;47.180;9.776;2023-04-21T14:22:47;26.10;67.50
19224;DHT22;9746;47.180;9.776;2023-04-21T14:25:16;25.80;66.90
19224;DHT22;9746;47.180;9.776;2023-04-21T14:27:43;25.50;67.30
19224;DHT22;9746;47.180;9.776;2023-04-21T14:30:12;25.30;67.20
19224;DHT22;9746;47.180;9.776;2023-04-21T14:32:52;24.90;67.80
19224;DHT22;9746;47.180;9.776;2023-04-21T14:35:20;24.30;68.50
19224;DHT22;9746;47.180;9.776;2023-04-21T14:41:31;24.00;70.50
19224;DHT22;9746;47.180;9.776;2023-04-21T14:43:58;24.00;69.40
19224;DHT22;9746;47.180;9.776;2023-04-21T14:46:43;24.00;68.40
19224;DHT22;9746;47.180;9.776;2023-04-21T14:49:11;23.50;68.90
19224;DHT22;9746;47.180;9.776;2023-04-21T14:51:58;23.20;70.30
19224;DHT22;9746;47.180;9.776;2023-04-21T14:54:25;23.40;70.10
19224;DHT22;9746;47.180;9.776;2023-04-21T14:57:16;23.50;69.80
19224;DHT22;9746;47.180;9.776;2023-04-21T14:59:46;24.10;69.10
19224;DHT22;9746;47.180;9.776;2023-04-21T15:02:29;24.60;70.10
19224;DHT22;9746;47.180;9.776;2023-04-21T15:04:56;25.40;69.90
19224;DHT22;9746;47.180;9.776;2023-04-21T15:07:39;26.00;66.90
19224;DHT22;9746;47.180;9.776;2023-04-21T15:10:08;26.30;67.60
19224;DHT22;9746;47.180;9.776;2023-04-21T15:12:57;26.40;66.00
19224;DHT22;9746;47.180;9.776;2023-04-21T15:15:25;27.00;66.70
19224;DHT22;9746;47.180;9.776;2023-04-21T15:18:10;27.30;64.50
19224;DHT22;9746;47.180;9.776;2023-04-21T15:20:37;27.10;63.70
19224;DHT22;9746;47.180;9.776;2023-04-21T15:23:18;27.00;63.90
19224;DHT22;9746;47.180;9.776;2023-04-21T15:25:46;26.10;65.70
19224;DHT22;9746;47.180;9.776;2023-04-21T15:28:15;25.80;66.00
19224;DHT22;9746;47.180;9.776;2023-04-21T15:30:42;25.60;67.50
19224;DHT22;9746;47.180;9.776;2023-04-21T15:36:30;24.50;69.70
19224;DHT22;9746;47.180;9.776;2023-04-21T15:38:58;24.30;69.20
19224;DHT22;9746;47.180;9.776;2023-04-21T15:41:44;24.10;69.60
19224;DHT22;9746;47.180;9.776;2023-04-21T15:44:13;23.80;70.10
19224;DHT22;9746;47.180;9.776;2023-04-21T15:47:00;23.60;70.90
19224;DHT22;9746;47.180;9.776;2023-04-21T15:49:28;23.40;72.00
19224;DHT22;9746;47.180;9.776;2023-04-21T15:52:14;23.20;70.90
19224;DHT22;9746;47.180;9.776;2023-04-21T15:54:44;23.00;71.40
19224;DHT22;9746;47.180;9.776;2023-04-21T15:57:19;23.00;72.10
19224;DHT22;9746;47.180;9.776;2023-04-21T15:59:50;23.00;72.40
19224;DHT22;9746;47.180;9.776;2023-04-21T16:05:16;23.20;71.00
19224;DHT22;9746;47.180;9.776;2023-04-21T16:07:58;23.30;71.50
19224;DHT22;9746;47.180;9.776;2023-04-21T16:10:26;23.20;70.90
19224;DHT22;9746;47.180;9.776;2023-04-21T16:16:17;22.90;71.70
19224;DHT22;9746;47.180;9.776;2023-04-21T16:18:44;22.40;70.30
19224;DHT22;9746;47.180;9.776;2023-04-21T16:21:12;22.30;71.50
19224;DHT22;9746;47.180;9.776;2023-04-21T16:23:39;22.00;71.10
19224;DHT22;9746;47.180;9.776;2023-04-21T16:26:07;21.80;72.10
19224;DHT22;9746;47.180;9.776;2023-04-21T16:28:50;21.80;75.10
19224;DHT22;9746;47.180;9.776;2023-04-21T16:31:22;21.80;76.90
19224;DHT22;9746;47.180;9.776;2023-04-21T16:33:49;21.90;78.60
19224;DHT22;9746;47.180;9.776;2023-04-21T16:36:17;21.60;80.10
19224;DHT22;9746;47.180;9.776;2023-04-21T16:38:46;21.40;80.70
19224;DHT22;9746;47.180;9.776;2023-04-21T16:41:13;21.10;81.20
19224;DHT22;9746;47.180;9.776;2023-04-21T16:47:10;21.00;78.80
19224;DHT22;9746;47.180;9.776;2023-04-21T16:49:38;20.90;78.30
19224;DHT22;9746;47.180;9.776;2023-04-21T16:52:24;20.80;78.70
19224;DHT22;9746;47.180;9.776;2023-04-21T16:54:52;20.70;80.10
19224;DHT22;9746;47.180;9.776;2023-04-21T17:00:41;20.60;81.40
19224;DHT22;9746;47.180;9.776;2023-04-21T17:06:31;20.20;81.80
19224;DHT22;9746;47.180;9.776;2023-04-21T17:08:59;20.00;87.30
19224;DHT22;9746;47.180;9.776;2023-04-21T17:11:26;19.90;87.70
19224;DHT22;9746;47.180;9.776;2023-04-21T17:17:16;19.60;86.80
19224;DHT22;9746;47.180;9.776;2023-04-21T17:19:44;19.50;85.50
19224;DHT22;9746;47.180;9.776;2023-04-21T17:22:31;19.40;88.50
19224;DHT22;9746;47.180;9.776;2023-04-21T17:24:58;19.30;87.90
19224;DHT22;9746;47.180;9.776;2023-04-21T17:30:47;19.00;89.60
19224;DHT22;9746;47.180;9.776;2023-04-21T17:36:26;18.80;89.90
19224;DHT22;9746;47.180;9.776;2023-04-21T17:39:21;18.70;90.50
19224;DHT22;9746;47.180;9.776;2023-04-21T17:41:55;18.50;89.30
19224;DHT22;9746;47.180;9.776;2023-04-21T17:44:22;18.40;88.90
19224;DHT22;9746;47.180;9.776;2023-04-21T17:47:04;18.40;88.80
19224;DHT22;9746;47.180;9.776;2023-04-21T17:49:33;18.30;89.40
19224;DHT22;9746;47.180;9.776;2023-04-21T17:52:20;18.20;90.10
19224;DHT22;9746;47.180;9.776;2023-04-21T17:54:48;18.10;91.40
19224;DHT22;9746;47.180;9.776;2023-04-21T17:57:34;17.90;92.10
19224;DHT22;9746;47.180;9.776;2023-04-21T18:00:02;17.80;92.80
19224;DHT22;9746;47.180;9.776;2023-04-21T18:02:47;17.70;94.00
19224;DHT22;9746;47.180;9.776;2023-04-21T18:05:14;17.50;94.40
19224;DHT22;9746;47.180;9.776;2023-04-21T18:07:57;17.30;92.80
19224;DHT22;9746;47.180;9.776;2023-04-21T18:10:27;17.10;93.30
19224;DHT22;9746;47.180;9.776;2023-04-21T18:12:55;17.00;94.50
19224;DHT22;9746;47.180;9.776;2023-04-21T18:15:23;16.70;95.10
19224;DHT22;9746;47.180;9.776;2023-04-21T18:20:49;16.50;95.00
19224;DHT22;9746;47.180;9.776;2023-04-21T18:23:38;16.50;95.40
19224;DHT22;9746;47.180;9.776;2023-04-21T18:26:07;16.50;95.50
19224;DHT22;9746;47.180;9.776;2023-04-21T18:31:42;16.30;96.20
19224;DHT22;9746;47.180;9.776;2023-04-21T18:34:28;16.30;97.20
19224;DHT22;9746;47.180;9.776;2023-04-21T18:36:56;16.10;97.30
19224;DHT22;9746;47.180;9.776;2023-04-21T18:45:58;15.60;98.80
19224;DHT22;9746;47.180;9.776;2023-04-21T18:48:31;15.40;99.00
19224;DHT22;9746;47.180;9.776;2023-04-21T18:50:58;15.40;99.70
19224;DHT22;9746;47.180;9.776;2023-04-21T18:54:02;15.40;99.90
19224;DHT22;9746;47.180;9.776;2023-04-21T18:56:30;15.30;99.90
19224;DHT22;9746;47.180;9.776;2023-04-21T18:59:10;15.20;99.90
19224;DHT22;9746;47.180;9.776;2023-04-21T19:01:39;15.10;99.90
19224;DHT22;9746;47.180;9.776;2023-04-21T19:04:18;15.00;99.90
19224;DHT22;9746;47.180;9.776;2023-04-21T19:06:46;14.90;99.90
19224;DHT22;9746;47.180;9.776;2023-04-21T19:09:18;14.80;99.90
19224;DHT22;9746;47.180;9.776;2023-04-21T19:11:45;14.70;99.90
19224;DHT22;9746;47.180;9.776;2023-04-21T19:14:20;14.50;99.90
19224;DHT22;9746;47.180;9.776;2023-04-21T19:16:49;14.40;99.90
19224;DHT22;9746;47.180;9.776;2023-04-21T19:19:40;14.30;99.90
19224;DHT22;9746;47.180;9.776;2023-04-21T19:22:08;14.20;99.90
19224;DHT22;9746;47.180;9.776;2023-04-21T19:24:52;14.20;99.90
19224;DHT22;9746;47.180;9.776;2023-04-21T19:27:21;14.20;99.90
19224;DHT22;9746;47.180;9.776;2023-04-21T19:29:49;14.10;99.90
19224;DHT22;9746;47.180;9.776;2023-04-21T19:32:18;14.00;99.90
19224;DHT22;9746;47.180;9.776;2023-04-21T19:34:45;14.00;99.90
19224;DHT22;9746;47.180;9.776;2023-04-21T19:37:12;14.00;99.90
19224;DHT22;9746;47.180;9.776;2023-04-21T19:39:40;13.90;99.90
19224;DHT22;9746;47.180;9.776;2023-04-21T19:42:07;13.80;99.90
19224;DHT22;9746;47.180;9.776;2023-04-21T19:44:43;13.80;99.90
19224;DHT22;9746;47.180;9.776;2023-04-21T19:47:10;13.80;99.90
19224;DHT22;9746;47.180;9.776;2023-04-21T19:49:39;13.70;99.90
19224;DHT22;9746;47.180;9.776;2023-04-21T19:52:06;13.60;99.90
19224;DHT22;9746;47.180;9.776;2023-04-21T19:54:39;13.60;99.90
19224;DHT22;9746;47.180;9.776;2023-04-21T19:57:07;13.50;99.90
19224;DHT22;9746;47.180;9.776;2023-04-21T20:02:28;13.30;99.90
19224;DHT22;9746;47.180;9.776;2023-04-21T20:05:20;13.30;99.90
19224;DHT22;9746;47.180;9.776;2023-04-21T20:07:48;13.20;99.90
19224;DHT22;9746;47.180;9.776;2023-04-21T20:10:15;13.20;99.90
19224;DHT22;9746;47.180;9.776;2023-04-21T20:12:43;13.10;99.90
19224;DHT22;9746;47.180;9.776;2023-04-21T20:15:10;13.00;99.90
19224;DHT22;9746;47.180;9.776;2023-04-21T20:17:38;12.90;99.90
19224;DHT22;9746;47.180;9.776;2023-04-21T20:23:19;12.80;99.90
19224;DHT22;9746;47.180;9.776;2023-04-21T20:25:47;12.70;99.90
19224;DHT22;9746;47.180;9.776;2023-04-21T20:28:23;12.80;99.90
19224;DHT22;9746;47.180;9.776;2023-04-21T20:30:52;12.80;99.90
19224;DHT22;9746;47.180;9.776;2023-04-21T20:33:31;12.70;99.90
19224;DHT22;9746;47.180;9.776;2023-04-21T20:35:58;12.70;99.90
19224;DHT22;9746;47.180;9.776;2023-04-21T20:38:59;12.70;99.90
19224;DHT22;9746;47.180;9.776;2023-04-21T20:41:27;12.70;99.90
19224;DHT22;9746;47.180;9.776;2023-04-21T20:46:49;12.70;99.90
19224;DHT22;9746;47.180;9.776;2023-04-21T20:49:21;12.60;99.90
19224;DHT22;9746;47.180;9.776;2023-04-21T20:51:55;12.60;99.90
19224;DHT22;9746;47.180;9.776;2023-04-21T20:54:29;12.50;99.90
19224;DHT22;9746;47.180;9.776;2023-04-21T20:56:59;12.50;99.90
19224;DHT22;9746;47.180;9.776;2023-04-21T20:59:28;12.30;99.90
19224;DHT22;9746;47.180;9.776;2023-04-21T21:01:55;12.20;99.90
19224;DHT22;9746;47.180;9.776;2023-04-21T21:04:31;12.20;99.90
19224;DHT22;9746;47.180;9.776;2023-04-21T21:06:59;12.00;99.90
19224;DHT22;9746;47.180;9.776;2023-04-21T21:09:35;12.00;99.90
19224;DHT22;9746;47.180;9.776;2023-04-21T21:12:03;11.90;99.90
19224;DHT22;9746;47.180;9.776;2023-04-21T21:14:30;11.80;99.90
